Welcome to Northern Hawkes Bay. New Zealand.
PWS Header
      nz Flag



Hit Counter


W3C Valid W3C Valid logo


    Wairoa

Select any of the Stations below to visit their websites.










Historic Data from Weather Underground
Select the location of interest below. Wairoa is the default. Please have patience, this Data is slow to load in.
Northern Hawkes Bay Historical Data
Daily Summary for June 26, 2017 Units:  Metric    English   Both
« Previous Day
Next Day »
Daily Weekly Monthly Yearly Custom
  High: Low: Average:
Temperature: 12.7 °C 9.0 °C 10.4 °C
Dew Point: 10.4 °C 8.7 °C 9.5 °C
Humidity: 99% 81% 95%
Wind Speed: 18.3km/h 0.0km/h 6km/h
Wind Gust: 35.6km/h - -
Wind- - West
Pressure: 1016.1 hPa 1011.1 hPa -
Precipitation: 8.1 mm    
Historical Graphs
 
 
Tabular Data for June 26, 2017
Time Temperature Dew Point Pressure Wind Wind Speed Wind Gust Humidity Rainfall Rate (Hourly) solar
00:08 9.7 °C 9.6 °C 1011.1 hPa NNW 3.5 km/h 7.2 km/h 99% 0.0 mm 0 W/m2
00:13 9.8 °C 9.7 °C 1011.4 hPa NW 3.5 km/h 7.2 km/h 99% 0.0 mm 0 W/m2
00:18 9.8 °C 9.7 °C 1011.4 hPa NW 3.5 km/h 7.2 km/h 99% 0.0 mm 0 W/m2
00:23 9.9 °C 9.8 °C 1011.1 hPa NW 3.5 km/h 7.2 km/h 99% 0.0 mm 0 W/m2
00:28 9.9 °C 9.8 °C 1011.4 hPa NW 1.1 km/h 7.2 km/h 99% 0.0 mm 0 W/m2
00:33 9.9 °C 9.8 °C 1011.4 hPa NNW 2.6 km/h 5.0 km/h 99% 0.0 mm 0 W/m2
00:38 9.9 °C 9.8 °C 1011.4 hPa NNW 2.6 km/h 5.0 km/h 99% 0.0 mm 0 W/m2
00:43 9.9 °C 9.8 °C 1011.4 hPa NNW 2.6 km/h 5.0 km/h 99% 0.0 mm 0 W/m2
00:48 9.9 °C 9.8 °C 1011.4 hPa NNW 1.1 km/h 5.0 km/h 99% 0.0 mm 0 W/m2
00:53 9.9 °C 9.8 °C 1011.4 hPa NNW 3.5 km/h 5.0 km/h 99% 0.0 mm 0 W/m2
00:58 9.9 °C 9.8 °C 1011.4 hPa Calm   6.1 km/h 99% 0.0 mm 0 W/m2
01:03 9.9 °C 9.8 °C 1011.4 hPa NW 2.6 km/h 6.1 km/h 99% 0.0 mm 0 W/m2
01:08 9.9 °C 9.8 °C 1011.4 hPa NNW 3.5 km/h 6.1 km/h 99% 0.0 mm 0 W/m2
01:13 9.9 °C 9.8 °C 1011.7 hPa NNW 3.5 km/h 6.1 km/h 99% 0.0 mm 0 W/m2
01:18 9.9 °C 9.8 °C 1011.7 hPa NNW 2.6 km/h 6.1 km/h 99% 0.0 mm 0 W/m2
01:23 10.0 °C 9.8 °C 1011.7 hPa Calm   5.0 km/h 99% 0.0 mm 0 W/m2
01:28 10.0 °C 9.8 °C 1011.7 hPa Calm   3.5 km/h 99% 0.0 mm 0 W/m2
01:33 10.0 °C 9.8 °C 1011.7 hPa North 3.5 km/h 5.0 km/h 99% 0.0 mm 0 W/m2
01:38 10.0 °C 9.8 °C 1011.7 hPa NNW 2.6 km/h 5.0 km/h 99% 0.0 mm 0 W/m2
01:43 10.0 °C 9.8 °C 1011.7 hPa NNW 1.1 km/h 5.0 km/h 99% 0.0 mm 0 W/m2
01:48 10.0 °C 9.8 °C 1012.1 hPa Calm   5.0 km/h 99% 0.0 mm 0 W/m2
01:53 10.0 °C 9.8 °C 1012.1 hPa North 2.6 km/h 5.0 km/h 99% 0.0 mm 0 W/m2
01:58 10.0 °C 9.8 °C 1012.1 hPa NNW 6.1 km/h 8.7 km/h 99% 0.0 mm 0 W/m2
02:03 10.0 °C 9.8 °C 1012.1 hPa NNW 3.5 km/h 8.7 km/h 99% 0.3 mm 0 W/m2
02:08 10.0 °C 9.8 °C 1012.1 hPa NW 3.5 km/h 8.7 km/h 99% 0.3 mm 0 W/m2
02:13 10.0 °C 9.8 °C 1012.1 hPa NW 7.2 km/h 9.7 km/h 99% 0.3 mm 0 W/m2
02:15 10.0 °C 9.8 °C 1012.1 hPa NW 6.1 km/h 9.7 km/h 99% 0.3 mm 0 W/m2
02:20 10.0 °C 9.8 °C 1012.1 hPa NW 2.6 km/h 9.7 km/h 99% 0.3 mm 0 W/m2
02:25 10.0 °C 9.8 °C 1012.1 hPa WNW 2.6 km/h 8.7 km/h 99% 0.3 mm 0 W/m2
02:30 9.9 °C 9.8 °C 1012.1 hPa NW 5.0 km/h 8.7 km/h 99% 0.5 mm 0 W/m2
02:35 10.0 °C 9.8 °C 1012.1 hPa NW 2.6 km/h 7.2 km/h 99% 0.5 mm 0 W/m2
02:40 10.0 °C 9.8 °C 1012.1 hPa NW 5.0 km/h 7.2 km/h 99% 0.5 mm 0 W/m2
02:45 10.0 °C 9.8 °C 1012.1 hPa NW 2.6 km/h 7.2 km/h 99% 0.5 mm 0 W/m2
02:50 10.3 °C 10.2 °C 1012.1 hPa WNW 3.5 km/h 14.8 km/h 99% 0.5 mm 0 W/m2
02:55 10.4 °C 10.3 °C 1012.1 hPa West 8.7 km/h 14.8 km/h 99% 0.5 mm 0 W/m2
03:00 10.5 °C 10.3 °C 1012.1 hPa WNW 6.1 km/h 14.8 km/h 99% 0.3 mm 0 W/m2
03:16 10.5 °C 10.3 °C 1012.1 hPa West 6.1 km/h 13.4 km/h 99% 0.3 mm 0 W/m2
03:21 10.5 °C 10.3 °C 1012.4 hPa WSW 2.6 km/h 13.4 km/h 99% 0.3 mm 0 W/m2
03:26 10.5 °C 10.3 °C 1012.1 hPa WSW 6.1 km/h 13.4 km/h 99% 0.0 mm 0 W/m2
03:31 10.5 °C 10.3 °C 1012.4 hPa West 13.4 km/h 18.3 km/h 99% 0.0 mm 0 W/m2
03:36 10.5 °C 10.3 °C 1012.1 hPa WSW 8.7 km/h 19.5 km/h 99% 0.0 mm 0 W/m2
03:41 10.5 °C 10.3 °C 1012.4 hPa WSW 11.1 km/h 19.5 km/h 99% 0.0 mm 0 W/m2
03:46 10.5 °C 10.3 °C 1012.1 hPa WSW 7.2 km/h 19.5 km/h 99% 0.0 mm 0 W/m2
03:51 10.5 °C 10.3 °C 1012.1 hPa West 15.8 km/h 19.5 km/h 99% 0.0 mm 0 W/m2
03:56 10.5 °C 10.3 °C 1012.4 hPa West 7.2 km/h 18.3 km/h 99% 0.0 mm 0 W/m2
04:01 10.5 °C 10.3 °C 1012.1 hPa West 9.7 km/h 18.3 km/h 99% 0.0 mm 0 W/m2
04:06 10.5 °C 10.3 °C 1012.4 hPa WSW 8.7 km/h 15.8 km/h 99% 0.3 mm 0 W/m2
04:11 10.5 °C 10.3 °C 1012.4 hPa WSW 5.0 km/h 17.2 km/h 99% 0.5 mm 0 W/m2
04:16 10.5 °C 10.3 °C 1012.4 hPa West 6.1 km/h 17.2 km/h 99% 0.5 mm 0 W/m2
04:21 10.5 °C 10.3 °C 1012.4 hPa WSW 6.1 km/h 13.4 km/h 99% 0.5 mm 0 W/m2
04:26 10.5 °C 10.3 °C 1012.4 hPa WSW 6.1 km/h 13.4 km/h 99% 0.5 mm 0 W/m2
04:31 10.5 °C 10.3 °C 1012.4 hPa West 5.0 km/h 13.4 km/h 99% 0.5 mm 0 W/m2
04:36 10.5 °C 10.3 °C 1012.4 hPa West 6.1 km/h 13.4 km/h 99% 0.5 mm 0 W/m2
04:41 10.5 °C 10.3 °C 1012.4 hPa West 6.1 km/h 17.2 km/h 99% 0.5 mm 0 W/m2
04:46 10.5 °C 10.3 °C 1012.4 hPa WNW 5.0 km/h 17.2 km/h 99% 0.5 mm 0 W/m2
04:51 10.4 °C 10.3 °C 1012.8 hPa WNW 3.5 km/h 8.7 km/h 99% 0.5 mm 0 W/m2
04:56 10.4 °C 10.3 °C 1012.4 hPa West 6.1 km/h 9.7 km/h 99% 0.5 mm 0 W/m2
05:01 10.4 °C 10.3 °C 1012.8 hPa West 8.7 km/h 14.8 km/h 99% 0.5 mm 0 W/m2
05:06 10.4 °C 10.3 °C 1012.8 hPa West 7.2 km/h 17.2 km/h 99% 0.3 mm 0 W/m2
05:11 10.4 °C 10.3 °C 1012.8 hPa West 3.5 km/h 21.9 km/h 99% 0.0 mm 0 W/m2
05:16 10.4 °C 10.3 °C 1012.8 hPa WSW 3.5 km/h 21.9 km/h 99% 0.0 mm 0 W/m2
05:21 10.4 °C 10.3 °C 1012.4 hPa West 7.2 km/h 11.1 km/h 99% 0.0 mm 0 W/m2
05:26 10.4 °C 10.3 °C 1012.8 hPa West 3.5 km/h 11.1 km/h 99% 0.0 mm 0 W/m2
05:31 10.3 °C 10.2 °C 1012.8 hPa West 8.7 km/h 11.1 km/h 99% 0.0 mm 0 W/m2
05:36 10.3 °C 10.2 °C 1012.8 hPa West 3.5 km/h 14.8 km/h 99% 0.0 mm 0 W/m2
05:41 10.3 °C 10.2 °C 1012.8 hPa West 6.1 km/h 14.8 km/h 99% 0.0 mm 0 W/m2
05:46 10.3 °C 10.2 °C 1012.8 hPa West 7.2 km/h 12.2 km/h 99% 0.0 mm 0 W/m2
05:51 10.3 °C 10.2 °C 1013.1 hPa WNW 6.1 km/h 15.8 km/h 99% 0.0 mm 0 W/m2
05:56 10.3 °C 10.0 °C 1013.1 hPa West 5.0 km/h 15.8 km/h 98% 0.0 mm 0 W/m2
06:01 10.3 °C 10.0 °C 1013.1 hPa West 8.7 km/h 14.8 km/h 98% 0.0 mm 0 W/m2
06:06 10.3 °C 10.0 °C 1013.1 hPa West 11.1 km/h 17.2 km/h 98% 0.0 mm 0 W/m2
06:11 10.3 °C 9.8 °C 1013.1 hPa West 9.7 km/h 17.2 km/h 97% 0.0 mm 0 W/m2
06:16 10.3 °C 9.8 °C 1013.1 hPa WSW 8.7 km/h 17.2 km/h 97% 0.0 mm 0 W/m2
06:21 10.3 °C 9.7 °C 1013.4 hPa West 3.5 km/h 15.8 km/h 96% 0.0 mm 0 W/m2
06:26 10.3 °C 9.7 °C 1013.4 hPa West 2.6 km/h 12.2 km/h 96% 0.0 mm 0 W/m2
06:31 10.2 °C 9.6 °C 1013.4 hPa WNW 3.5 km/h 9.7 km/h 96% 0.0 mm 0 W/m2
06:36 10.2 °C 9.6 °C 1013.4 hPa NW 3.5 km/h 9.7 km/h 96% 0.0 mm 0 W/m2
06:41 10.1 °C 9.5 °C 1013.4 hPa NW 5.0 km/h 7.2 km/h 96% 0.0 mm 0 W/m2
06:46 10.0 °C 9.4 °C 1013.4 hPa NW 3.5 km/h 7.2 km/h 96% 0.0 mm 0 W/m2
06:51 10.0 °C 9.6 °C 1013.4 hPa NW 5.0 km/h 8.7 km/h 97% 0.0 mm 0 W/m2
06:56 9.9 °C 9.6 °C 1013.4 hPa NW 5.0 km/h 8.7 km/h 98% 0.0 mm 0 W/m2
07:01 9.9 °C 9.8 °C 1013.4 hPa WNW 1.1 km/h 8.7 km/h 99% 0.0 mm 0 W/m2
07:06 9.9 °C 9.8 °C 1013.4 hPa NW 6.1 km/h 8.7 km/h 99% 0.0 mm 0 W/m2
07:11 9.8 °C 9.7 °C 1013.4 hPa NW 3.5 km/h 8.7 km/h 99% 0.0 mm 0 W/m2
07:16 9.8 °C 9.7 °C 1013.8 hPa NW 3.5 km/h 8.7 km/h 99% 0.0 mm 0 W/m2
07:21 9.8 °C 9.7 °C 1013.8 hPa NW 2.6 km/h 11.1 km/h 99% 0.0 mm 0 W/m2
07:26 9.8 °C 9.7 °C 1013.8 hPa WNW 2.6 km/h 11.1 km/h 99% 0.3 mm 0 W/m2
07:31 9.8 °C 9.7 °C 1013.8 hPa WNW 2.6 km/h 7.2 km/h 99% 0.3 mm 0 W/m2
07:36 9.8 °C 9.7 °C 1014.1 hPa WNW 6.1 km/h 7.2 km/h 99% 0.3 mm 0 W/m2
07:41 9.8 °C 9.7 °C 1014.1 hPa West 3.5 km/h 8.7 km/h 99% 0.3 mm 0 W/m2
07:46 9.8 °C 9.5 °C 1014.1 hPa WNW 5.0 km/h 8.7 km/h 98% 0.3 mm 0 W/m2
07:51 9.8 °C 9.5 °C 1014.1 hPa WNW 3.5 km/h 8.7 km/h 98% 0.3 mm 0 W/m2
07:56 9.8 °C 9.5 °C 1014.1 hPa West 3.5 km/h 8.7 km/h 98% 0.3 mm 0 W/m2
08:01 9.8 °C 9.5 °C 1014.1 hPa WNW 2.6 km/h 8.7 km/h 98% 0.3 mm 1 W/m2
08:06 9.8 °C 9.5 °C 1014.1 hPa WNW 3.5 km/h 8.7 km/h 98% 0.5 mm 1 W/m2
08:12 9.8 °C 9.5 °C 1014.4 hPa West 2.6 km/h 8.7 km/h 98% 0.5 mm 4 W/m2
08:17 9.8 °C 9.3 °C 1014.4 hPa West 1.1 km/h 8.7 km/h 97% 0.5 mm 6 W/m2
08:22 9.9 °C 9.4 °C 1014.4 hPa WNW 3.5 km/h 7.2 km/h 97% 0.3 mm 7 W/m2
08:27 9.9 °C 9.4 °C 1014.4 hPa WNW 2.6 km/h 7.2 km/h 97% 0.3 mm 10 W/m2
08:32 9.9 °C 9.4 °C 1014.4 hPa WNW 3.5 km/h 7.2 km/h 97% 0.3 mm 12 W/m2
08:37 9.9 °C 9.4 °C 1014.8 hPa NW 3.5 km/h 7.2 km/h 97% 0.3 mm 18 W/m2
08:42 9.9 °C 9.4 °C 1014.4 hPa NW 3.5 km/h 6.1 km/h 97% 0.3 mm 21 W/m2
08:47 9.9 °C 9.4 °C 1014.8 hPa NW 3.5 km/h 9.7 km/h 97% 0.3 mm 22 W/m2
08:52 9.9 °C 9.4 °C 1014.8 hPa NW 3.5 km/h 9.7 km/h 97% 0.3 mm 25 W/m2
08:57 9.9 °C 9.4 °C 1014.8 hPa NW 2.6 km/h 8.7 km/h 97% 0.3 mm 26 W/m2
09:02 9.9 °C 9.6 °C 1014.8 hPa NW 2.6 km/h 6.1 km/h 98% 0.3 mm 25 W/m2
09:07 9.9 °C 9.6 °C 1014.8 hPa NW 2.6 km/h 6.1 km/h 98% 0.0 mm 25 W/m2
09:12 9.9 °C 9.6 °C 1014.8 hPa NW 1.1 km/h 6.1 km/h 98% 0.0 mm 22 W/m2
09:17 10.0 °C 9.6 °C 1015.1 hPa Calm   6.1 km/h 97% 0.0 mm 20 W/m2
09:22 10.0 °C 9.6 °C 1015.1 hPa NW 3.5 km/h 7.2 km/h 97% 0.0 mm 27 W/m2
09:27 10.0 °C 9.6 °C 1015.1 hPa WNW 3.5 km/h 8.7 km/h 97% 0.0 mm 33 W/m2
09:32 10.0 °C 9.6 °C 1015.1 hPa WNW 3.5 km/h 8.7 km/h 97% 0.0 mm 30 W/m2
09:37 10.1 °C 9.5 °C 1015.1 hPa NW 1.1 km/h 6.1 km/h 96% 0.0 mm 30 W/m2
09:42 10.1 °C 9.5 °C 1015.1 hPa NNW 2.6 km/h 6.1 km/h 96% 0.0 mm 33 W/m2
09:47 10.1 °C 9.5 °C 1015.1 hPa North 2.6 km/h 5.0 km/h 96% 0.0 mm 32 W/m2
09:52 10.1 °C 9.5 °C 1015.5 hPa NNW 3.5 km/h 6.1 km/h 96% 0.0 mm 37 W/m2
09:57 10.0 °C 9.4 °C 1015.5 hPa NNW 2.6 km/h 7.2 km/h 96% 0.0 mm 40 W/m2
10:02 9.9 °C 9.4 °C 1015.5 hPa NW 2.6 km/h 7.2 km/h 97% 0.0 mm 38 W/m2
10:07 9.9 °C 9.4 °C 1015.5 hPa NNW 1.1 km/h 6.1 km/h 97% 0.0 mm 44 W/m2
10:12 9.9 °C 9.4 °C 1015.5 hPa North 3.5 km/h 9.7 km/h 97% 0.0 mm 46 W/m2
10:17 9.8 °C 9.5 °C 1015.5 hPa North 3.5 km/h 9.7 km/h 98% 0.0 mm 56 W/m2
10:22 9.9 °C 9.6 °C 1015.5 hPa North 2.6 km/h 6.1 km/h 98% 0.0 mm 56 W/m2
10:27 10.0 °C 9.6 °C 1015.5 hPa North 2.6 km/h 6.1 km/h 97% 0.0 mm 69 W/m2
10:32 10.1 °C 9.8 °C 1015.5 hPa North 1.1 km/h 6.1 km/h 98% 0.0 mm 79 W/m2
10:37 10.3 °C 10.0 °C 1015.5 hPa Calm   6.1 km/h 98% 0.0 mm 79 W/m2
10:42 10.4 °C 10.3 °C 1015.5 hPa NNE 1.1 km/h 2.6 km/h 99% 0.0 mm 90 W/m2
10:47 10.4 °C 10.3 °C 1015.5 hPa NNE 2.6 km/h 5.0 km/h 99% 0.0 mm 96 W/m2
10:52 10.5 °C 10.2 °C 1015.5 hPa NNE 1.1 km/h 5.0 km/h 98% 0.0 mm 87 W/m2
10:57 10.6 °C 10.3 °C 1015.5 hPa NNE 2.6 km/h 5.0 km/h 98% 0.0 mm 80 W/m2
11:02 10.7 °C 10.4 °C 1015.5 hPa North 2.6 km/h 5.0 km/h 98% 0.0 mm 74 W/m2
11:07 10.6 °C 10.2 °C 1015.5 hPa Calm   5.0 km/h 97% 0.0 mm 71 W/m2
11:13 10.7 °C 10.2 °C 1015.5 hPa Calm   3.5 km/h 97% 0.3 mm 60 W/m2
11:18 10.7 °C 10.2 °C 1015.5 hPa Calm   3.5 km/h 97% 0.3 mm 64 W/m2
11:23 10.7 °C 10.1 °C 1015.1 hPa NNW 1.1 km/h 5.0 km/h 96% 0.3 mm 84 W/m2
11:28 10.9 °C 10.3 °C 1015.1 hPa NNW 2.6 km/h 5.0 km/h 96% 0.3 mm 83 W/m2
11:33 10.9 °C 10.3 °C 1015.1 hPa NNW 1.1 km/h 5.0 km/h 96% 0.3 mm 96 W/m2
11:38 11.0 °C 10.2 °C 1014.8 hPa Calm   5.0 km/h 95% 0.3 mm 87 W/m2
11:43 11.2 °C 10.4 °C 1015.1 hPa West 5.0 km/h 8.7 km/h 95% 0.3 mm 100 W/m2
11:48 11.2 °C 10.1 °C 1014.8 hPa WSW 2.6 km/h 8.7 km/h 93% 0.3 mm 93 W/m2
11:53 11.1 °C 9.3 °C 1014.8 hPa WSW 6.1 km/h 19.5 km/h 89% 0.5 mm 99 W/m2
11:58 11.1 °C 9.0 °C 1015.1 hPa West 7.2 km/h 19.5 km/h 87% 0.5 mm 106 W/m2
12:03 11.2 °C 9.1 °C 1015.1 hPa WNW 3.5 km/h 15.8 km/h 87% 0.5 mm 106 W/m2
12:08 11.3 °C 9.1 °C 1015.1 hPa West 5.0 km/h 18.3 km/h 86% 0.5 mm 111 W/m2
12:13 11.4 °C 9.2 °C 1015.1 hPa West 7.2 km/h 18.3 km/h 86% 0.3 mm 110 W/m2
12:18 11.4 °C 9.2 °C 1014.8 hPa WSW 3.5 km/h 12.2 km/h 86% 0.3 mm 113 W/m2
12:23 11.6 °C 9.3 °C 1014.8 hPa WSW 7.2 km/h 14.8 km/h 86% 0.3 mm 119 W/m2
12:28 11.6 °C 9.2 °C 1014.8 hPa West 8.7 km/h 15.8 km/h 85% 0.3 mm 127 W/m2
12:33 11.7 °C 9.1 °C 1014.8 hPa West 5.0 km/h 15.8 km/h 84% 0.3 mm 130 W/m2
12:38 11.9 °C 9.3 °C 1014.8 hPa WSW 9.7 km/h 15.8 km/h 84% 0.3 mm 135 W/m2
12:43 11.9 °C 9.1 °C 1014.8 hPa WSW 6.1 km/h 17.2 km/h 83% 0.3 mm 137 W/m2
12:48 12.0 °C 9.0 °C 1014.8 hPa WSW 5.0 km/h 17.2 km/h 82% 0.0 mm 147 W/m2
12:53 12.2 °C 9.2 °C 1014.8 hPa SW 8.7 km/h 17.2 km/h 82% 0.0 mm 160 W/m2
12:58 12.3 °C 9.3 °C 1014.8 hPa SW 6.1 km/h 17.2 km/h 82% 0.0 mm 162 W/m2
13:03 12.4 °C 9.4 °C 1014.4 hPa WSW 5.0 km/h 15.8 km/h 82% 0.0 mm 154 W/m2
13:08 12.7 °C 9.9 °C 1014.8 hPa WSW 8.7 km/h 15.8 km/h 83% 0.0 mm 151 W/m2
13:25 12.4 °C 9.4 °C 1014.8 hPa WSW 12.2 km/h 21.9 km/h 82% 0.0 mm 140 W/m2
13:30 12.4 °C 9.4 °C 1014.8 hPa SW 13.4 km/h 20.9 km/h 82% 0.0 mm 133 W/m2
13:35 12.4 °C 9.4 °C 1014.4 hPa SW 8.7 km/h 20.9 km/h 82% 0.0 mm 138 W/m2
13:40 12.4 °C 9.4 °C 1014.4 hPa SW 14.8 km/h 23.3 km/h 82% 0.0 mm 137 W/m2
13:46 12.5 °C 9.3 °C 1014.4 hPa WSW 15.8 km/h 23.3 km/h 81% 0.0 mm 134 W/m2
14:02 12.6 °C 9.6 °C 1014.4 hPa SW 9.7 km/h 23.3 km/h 82% 0.0 mm 124 W/m2
14:07 12.6 °C 9.8 °C 1014.4 hPa SW 9.7 km/h 23.3 km/h 83% 0.0 mm 121 W/m2
14:12 12.4 °C 9.4 °C 1014.4 hPa SW 6.1 km/h 23.3 km/h 82% 0.0 mm 117 W/m2
14:17 12.3 °C 9.3 °C 1014.4 hPa WSW 13.4 km/h 24.5 km/h 82% 0.0 mm 116 W/m2
14:22 12.3 °C 9.3 °C 1014.8 hPa WSW 17.2 km/h 24.5 km/h 82% 0.0 mm 105 W/m2
14:27 12.3 °C 9.3 °C 1014.8 hPa SW 11.1 km/h 24.5 km/h 82% 0.0 mm 101 W/m2
14:32 12.3 °C 9.1 °C 1014.8 hPa SW 11.1 km/h 24.5 km/h 81% 0.0 mm 99 W/m2
14:37 12.3 °C 9.1 °C 1014.8 hPa SW 11.1 km/h 20.9 km/h 81% 0.0 mm 96 W/m2
14:42 12.4 °C 9.4 °C 1014.8 hPa SW 11.1 km/h 20.9 km/h 82% 0.0 mm 96 W/m2
14:47 12.3 °C 9.3 °C 1014.8 hPa SW 13.4 km/h 20.9 km/h 82% 0.0 mm 83 W/m2
14:52 12.2 °C 9.1 °C 1014.8 hPa WSW 12.2 km/h 21.9 km/h 81% 0.0 mm 71 W/m2
14:57 12.1 °C 8.9 °C 1014.8 hPa WSW 14.8 km/h 21.9 km/h 81% 0.0 mm 69 W/m2
15:02 12.1 °C 8.9 °C 1014.8 hPa SW 13.4 km/h 21.9 km/h 81% 0.0 mm 66 W/m2
15:20 12.1 °C 8.9 °C 1015.1 hPa WSW 9.7 km/h 21.9 km/h 81% 0.0 mm 46 W/m2
15:25 12.1 °C 8.9 °C 1015.1 hPa WSW 18.3 km/h 23.3 km/h 81% 0.0 mm 45 W/m2
15:30 12.0 °C 8.8 °C 1015.1 hPa WSW 11.1 km/h 23.3 km/h 81% 0.0 mm 49 W/m2
15:35 12.0 °C 8.8 °C 1014.8 hPa WSW 15.8 km/h 23.3 km/h 81% 0.0 mm 53 W/m2
15:40 12.1 °C 8.9 °C 1015.1 hPa SW 14.8 km/h 23.3 km/h 81% 0.0 mm 51 W/m2
15:45 12.1 °C 8.9 °C 1015.1 hPa SW 12.2 km/h 23.3 km/h 81% 0.0 mm 48 W/m2
15:50 12.1 °C 9.1 °C 1015.1 hPa WSW 6.1 km/h 20.9 km/h 82% 0.0 mm 37 W/m2
15:55 12.1 °C 9.1 °C 1015.1 hPa WSW 11.1 km/h 18.3 km/h 82% 0.0 mm 36 W/m2
16:00 12.1 °C 9.1 °C 1015.1 hPa WSW 8.7 km/h 21.9 km/h 82% 0.0 mm 24 W/m2
16:05 12.0 °C 9.2 °C 1014.8 hPa WSW 14.8 km/h 21.9 km/h 83% 0.0 mm 16 W/m2
16:10 12.0 °C 9.2 °C 1015.1 hPa SW 12.2 km/h 21.9 km/h 83% 0.0 mm 9 W/m2
16:15 11.9 °C 9.4 °C 1015.1 hPa SW 15.8 km/h 21.9 km/h 85% 0.0 mm 6 W/m2
16:20 11.8 °C 9.4 °C 1015.1 hPa SW 13.4 km/h 23.3 km/h 85% 0.0 mm 2 W/m2
16:25 11.8 °C 9.4 °C 1015.1 hPa SW 7.2 km/h 23.3 km/h 85% 0.0 mm 3 W/m2
16:30 11.6 °C 9.3 °C 1014.8 hPa SW 13.4 km/h 23.3 km/h 86% 0.0 mm 2 W/m2
16:35 11.6 °C 9.0 °C 1014.8 hPa SW 8.7 km/h 23.3 km/h 84% 0.0 mm 1 W/m2
16:40 11.6 °C 9.2 °C 1015.1 hPa SW 13.4 km/h 20.9 km/h 85% 0.0 mm 0 W/m2
16:45 11.6 °C 9.2 °C 1014.8 hPa WSW 14.8 km/h 23.3 km/h 85% 0.0 mm 0 W/m2
16:50 11.6 °C 9.3 °C 1015.1 hPa WSW 12.2 km/h 23.3 km/h 86% 0.0 mm 0 W/m2
16:55 11.5 °C 9.2 °C 1015.1 hPa WSW 8.7 km/h 19.5 km/h 86% 0.0 mm 0 W/m2
17:00 11.5 °C 9.2 °C 1015.1 hPa SW 12.2 km/h 21.9 km/h 86% 0.0 mm 0 W/m2
17:05 11.5 °C 9.1 °C 1015.1 hPa SW 15.8 km/h 23.3 km/h 85% 0.0 mm 0 W/m2
17:10 11.5 °C 9.2 °C 1015.1 hPa WSW 14.8 km/h 23.3 km/h 86% 0.0 mm 0 W/m2
17:15 11.4 °C 9.3 °C 1015.1 hPa West 13.4 km/h 23.3 km/h 87% 0.0 mm 0 W/m2
17:20 11.4 °C 9.3 °C 1015.1 hPa WSW 9.7 km/h 23.3 km/h 87% 0.0 mm 0 W/m2
17:25 11.4 °C 9.3 °C 1015.1 hPa WSW 13.4 km/h 24.5 km/h 87% 0.0 mm 0 W/m2
17:30 11.3 °C 9.1 °C 1015.1 hPa WSW 11.1 km/h 24.5 km/h 86% 0.0 mm 0 W/m2
17:35 11.2 °C 8.9 °C 1015.1 hPa WSW 12.2 km/h 18.3 km/h 86% 0.0 mm 0 W/m2
17:40 11.2 °C 8.8 °C 1015.1 hPa WSW 11.1 km/h 19.5 km/h 85% 0.0 mm 0 W/m2
17:45 11.3 °C 8.7 °C 1015.1 hPa WSW 17.2 km/h 28.0 km/h 84% 0.0 mm 0 W/m2
17:50 11.2 °C 8.9 °C 1015.1 hPa WSW 11.1 km/h 28.0 km/h 86% 0.0 mm 0 W/m2
17:55 11.0 °C 8.9 °C 1015.1 hPa WSW 11.1 km/h 28.0 km/h 87% 0.0 mm 0 W/m2
18:00 10.9 °C 9.2 °C 1015.5 hPa WSW 9.7 km/h 30.6 km/h 89% 0.0 mm 0 W/m2
18:05 10.7 °C 9.1 °C 1015.5 hPa WSW 14.8 km/h 30.6 km/h 90% 0.0 mm 0 W/m2
18:10 10.5 °C 9.1 °C 1015.5 hPa WSW 15.8 km/h 35.6 km/h 91% 0.0 mm 0 W/m2
18:15 10.3 °C 9.2 °C 1015.5 hPa WSW 11.1 km/h 35.6 km/h 93% 0.0 mm 0 W/m2
18:20 10.2 °C 9.3 °C 1015.5 hPa West 13.4 km/h 28.0 km/h 94% 0.0 mm 0 W/m2
18:25 10.2 °C 9.3 °C 1015.5 hPa WSW 8.7 km/h 19.5 km/h 94% 0.0 mm 0 W/m2
18:30 10.2 °C 9.1 °C 1015.5 hPa West 12.2 km/h 20.9 km/h 93% 0.0 mm 0 W/m2
18:35 10.2 °C 9.1 °C 1015.5 hPa WNW 11.1 km/h 24.5 km/h 93% 0.0 mm 0 W/m2
18:40 10.1 °C 9.2 °C 1015.5 hPa West 9.7 km/h 24.5 km/h 94% 0.0 mm 0 W/m2
18:45 10.0 °C 9.1 °C 1015.5 hPa West 12.2 km/h 19.5 km/h 94% 0.0 mm 0 W/m2
18:50 9.9 °C 9.3 °C 1015.8 hPa West 7.2 km/h 19.5 km/h 96% 0.0 mm 0 W/m2
18:55 9.8 °C 9.2 °C 1015.5 hPa West 6.1 km/h 19.5 km/h 96% 0.0 mm 0 W/m2
19:00 9.7 °C 9.2 °C 1015.5 hPa West 6.1 km/h 14.8 km/h 97% 0.0 mm 0 W/m2
19:19 9.4 °C 9.1 °C 1015.5 hPa WNW 7.2 km/h 17.2 km/h 98% 0.3 mm 0 W/m2
19:24 9.4 °C 9.1 °C 1015.5 hPa WNW 6.1 km/h 17.2 km/h 98% 0.3 mm 0 W/m2
19:29 9.3 °C 9.2 °C 1015.5 hPa West 6.1 km/h 14.8 km/h 99% 0.3 mm 0 W/m2
19:35 9.3 °C 9.2 °C 1015.5 hPa WNW 5.0 km/h 11.1 km/h 99% 0.3 mm 0 W/m2
19:40 9.2 °C 9.1 °C 1015.8 hPa NW 2.6 km/h 8.7 km/h 99% 0.5 mm 0 W/m2
19:45 9.2 °C 9.1 °C 1015.5 hPa WNW 7.2 km/h 9.7 km/h 99% 0.5 mm 0 W/m2
19:50 9.2 °C 9.1 °C 1015.8 hPa WNW 6.1 km/h 9.7 km/h 99% 0.5 mm 0 W/m2
19:55 9.2 °C 9.1 °C 1015.5 hPa WNW 6.1 km/h 12.2 km/h 99% 0.5 mm 0 W/m2
20:00 9.2 °C 9.1 °C 1015.8 hPa NW 3.5 km/h 12.2 km/h 99% 1.3 mm 0 W/m2
20:05 9.2 °C 9.1 °C 1015.8 hPa West 1.1 km/h 8.7 km/h 99% 1.0 mm 0 W/m2
20:10 9.3 °C 9.2 °C 1015.8 hPa SW 3.5 km/h 9.7 km/h 99% 1.3 mm 0 W/m2
20:15 9.3 °C 9.2 °C 1015.5 hPa WSW 7.2 km/h 17.2 km/h 99% 1.5 mm 0 W/m2
20:20 9.3 °C 9.2 °C 1015.8 hPa West 5.0 km/h 17.2 km/h 99% 1.5 mm 0 W/m2
20:25 9.3 °C 9.2 °C 1015.8 hPa WSW 7.2 km/h 13.4 km/h 99% 1.8 mm 0 W/m2
20:30 9.4 °C 9.3 °C 1015.5 hPa SW 7.2 km/h 12.2 km/h 99% 2.0 mm 0 W/m2
20:35 9.5 °C 9.3 °C 1015.5 hPa WSW 5.0 km/h 14.8 km/h 99% 2.3 mm 0 W/m2
20:40 9.7 °C 9.6 °C 1015.5 hPa WSW 3.5 km/h 14.8 km/h 99% 2.3 mm 0 W/m2
20:45 9.7 °C 9.6 °C 1015.5 hPa West 3.5 km/h 12.2 km/h 99% 2.3 mm 0 W/m2
20:50 9.6 °C 9.4 °C 1015.5 hPa WNW 8.7 km/h 12.2 km/h 99% 2.8 mm 0 W/m2
20:55 9.5 °C 9.3 °C 1015.5 hPa WNW 6.1 km/h 12.2 km/h 99% 2.3 mm 0 W/m2
21:00 9.5 °C 9.3 °C 1015.5 hPa West 5.0 km/h 12.2 km/h 99% 2.3 mm 0 W/m2
21:05 9.4 °C 9.3 °C 1015.1 hPa West 7.2 km/h 13.4 km/h 99% 2.8 mm 0 W/m2
21:10 9.4 °C 9.3 °C 1015.5 hPa WNW 6.1 km/h 13.4 km/h 99% 2.3 mm 0 W/m2
21:28 9.0 °C 8.8 °C 1015.5 hPa NNW 1.1 km/h 11.1 km/h 99% 3.0 mm 0 W/m2
21:33 9.0 °C 8.8 °C 1015.5 hPa North 2.6 km/h 7.2 km/h 99% 2.8 mm 0 W/m2
21:38 9.0 °C 8.8 °C 1015.5 hPa NNE 1.1 km/h 7.2 km/h 99% 2.8 mm 0 W/m2
21:43 9.0 °C 8.8 °C 1015.5 hPa Calm   7.2 km/h 99% 2.3 mm 0 W/m2
21:48 9.0 °C 8.8 °C 1015.5 hPa NE 1.1 km/h 5.0 km/h 99% 2.3 mm 0 W/m2
21:53 9.0 °C 8.8 °C 1015.5 hPa North 5.0 km/h 7.2 km/h 99% 2.0 mm 0 W/m2
21:58 9.1 °C 8.9 °C 1015.5 hPa NNE 1.1 km/h 8.7 km/h 99% 1.8 mm 0 W/m2
22:03 9.1 °C 8.9 °C 1015.8 hPa ENE 1.1 km/h 8.7 km/h 99% 1.5 mm 0 W/m2
22:08 9.1 °C 8.9 °C 1015.8 hPa Calm   6.1 km/h 99% 1.5 mm 0 W/m2
22:13 9.1 °C 8.9 °C 1015.8 hPa Calm   6.1 km/h 99% 1.5 mm 0 W/m2
22:18 9.1 °C 8.9 °C 1015.8 hPa NE 2.6 km/h 3.5 km/h 99% 1.3 mm 0 W/m2
22:23 9.1 °C 8.9 °C 1015.8 hPa North 2.6 km/h 3.5 km/h 99% 0.5 mm 0 W/m2
22:28 9.1 °C 8.9 °C 1015.8 hPa NW 1.1 km/h 3.5 km/h 99% 0.5 mm 0 W/m2
22:33 9.2 °C 9.1 °C 1015.8 hPa NW 1.1 km/h 5.0 km/h 99% 0.3 mm 0 W/m2
22:38 9.2 °C 9.1 °C 1016.1 hPa NNW 1.1 km/h 5.0 km/h 99% 0.3 mm 0 W/m2
22:43 9.4 °C 9.3 °C 1016.1 hPa NE 2.6 km/h 5.0 km/h 99% 0.3 mm 0 W/m2
22:48 9.6 °C 9.4 °C 1016.1 hPa NE 1.1 km/h 5.0 km/h 99% 0.3 mm 0 W/m2
22:53 9.7 °C 9.6 °C 1016.1 hPa NNE 1.1 km/h 5.0 km/h 99% 0.3 mm 0 W/m2
22:58 9.6 °C 9.4 °C 1015.8 hPa NNE 3.5 km/h 6.1 km/h 99% 0.3 mm 0 W/m2
23:03 9.7 °C 9.6 °C 1015.8 hPa North 2.6 km/h 6.1 km/h 99% 0.3 mm 0 W/m2
23:08 9.6 °C 9.4 °C 1016.1 hPa North 2.6 km/h 5.0 km/h 99% 0.0 mm 0 W/m2
23:13 9.5 °C 9.3 °C 1016.1 hPa North 1.1 km/h 5.0 km/h 99% 0.0 mm 0 W/m2
23:18 9.5 °C 9.3 °C 1016.1 hPa North 1.1 km/h 3.5 km/h 99% 0.0 mm 0 W/m2
23:23 9.5 °C 9.3 °C 1016.1 hPa North 7.2 km/h 9.7 km/h 99% 0.0 mm 0 W/m2
23:28 9.5 °C 9.3 °C 1015.8 hPa NW 7.2 km/h 11.1 km/h 99% 0.0 mm 0 W/m2
23:33 9.7 °C 9.6 °C 1016.1 hPa West 5.0 km/h 11.1 km/h 99% 0.0 mm 0 W/m2
23:38 9.8 °C 9.7 °C 1016.1 hPa West 5.0 km/h 12.2 km/h 99% 0.0 mm 0 W/m2
23:43 9.8 °C 9.7 °C 1016.1 hPa West 5.0 km/h 12.2 km/h 99% 0.0 mm 0 W/m2
23:48 9.9 °C 9.8 °C 1015.8 hPa West 8.7 km/h 14.8 km/h 99% 0.0 mm 0 W/m2
23:53 9.9 °C 9.8 °C 1016.1 hPa WSW 11.1 km/h 17.2 km/h 99% 0.0 mm 0 W/m2
23:58 10.0 °C 9.8 °C 1015.8 hPa West 13.4 km/h 17.2 km/h 99% 0.0 mm 0 W/m2
Northern Hawkes Bay. New Zealand Historic Data
Compliments of Weather Underground - 2 mb